createdAt,value
2019-03-31T00:12:06.513Z,119.53
2019-03-31T00:12:29.388Z,103.00
2019-03-31T00:15:15.237Z,105.78
2019-03-31T00:16:21.933Z,101.38
2019-03-31T00:17:28.170Z,104.70
2019-03-31T00:18:43.520Z,105.20
2019-03-31T00:19:51.907Z,104.65
2019-03-31T00:21:47.848Z,98.47
2019-03-31T00:23:37.793Z,103.17
2019-03-31T00:28:09.009Z,105.67
2019-03-31T00:29:30.072Z,101.18
2019-03-31T00:30:39.589Z,98.27
2019-03-31T00:31:49.956Z,102.62
2019-03-31T00:33:29.364Z,100.53
2019-03-31T00:36:11.563Z,98.55
2019-03-31T00:37:34.538Z,104.60
2019-03-31T00:38:23.409Z,102.53
2019-03-31T00:40:56.675Z,97.62
2019-03-31T00:41:07.734Z,98.97
2019-03-31T00:42:19.053Z,99.15
2019-03-31T00:43:28.199Z,103.15
2019-03-31T00:46:13.687Z,95.55
2019-03-31T00:47:29.601Z,99.72
2019-03-31T00:49:15.563Z,100.82
2019-03-31T00:50:01.328Z,101.02
2019-03-31T00:51:10.373Z,98.50
2019-03-31T00:54:17.727Z,96.85
2019-03-31T00:55:28.836Z,92.25
2019-03-31T00:56:35.482Z,97.72
2019-03-31T00:57:45.335Z,95.42
2019-03-31T01:00:45.129Z,91.45
2019-03-31T01:02:08.630Z,100.87
2019-03-31T01:04:25.229Z,96.40
2019-03-31T01:04:27.342Z,96.12
2019-03-31T01:05:37.513Z,94.45
2019-03-31T01:07:05.678Z,93.58
2019-03-31T01:08:13.743Z,103.25
2019-03-31T01:09:30.655Z,97.92
2019-03-31T01:10:44.639Z,100.35
2019-03-31T01:14:04.158Z,96.67
2019-03-31T01:15:05.698Z,100.07
2019-03-31T01:17:52.145Z,98.45
2019-03-31T01:20:03.435Z,107.00
2019-03-31T01:20:41.802Z,98.55
2019-03-31T01:27:23.091Z,101.35
2019-03-31T01:28:35.134Z,97.30
2019-03-31T01:31:29.264Z,106.37
2019-03-31T01:32:47.440Z,101.60
2019-03-31T01:34:02.158Z,102.22
2019-03-31T01:35:12.310Z,105.83
2019-03-31T01:36:32.429Z,93.37
2019-03-31T01:37:44.032Z,95.60
2019-03-31T01:39:53.427Z,93.95
2019-03-31T01:40:07.750Z,94.80
2019-03-31T01:41:25.873Z,95.20
2019-03-31T01:43:05.777Z,109.78
2019-03-31T01:45:16.983Z,103.72
2019-03-31T01:45:42.295Z,94.95
2019-03-31T01:48:24.780Z,106.85
2019-03-31T01:50:03.583Z,95.03
2019-03-31T01:50:59.864Z,93.40
2019-03-31T01:52:25.376Z,93.97
2019-03-31T01:54:43.773Z,95.05
2019-03-31T01:56:28.638Z,94.32
2019-03-31T01:57:24.180Z,92.45
2019-03-31T01:58:59.848Z,103.70
2019-03-31T02:03:19.277Z,90.00
2019-03-31T02:05:17.299Z,95.32
2019-03-31T02:05:46.645Z,89.28
2019-03-31T02:06:49.394Z,92.10
2019-03-31T02:08:04.292Z,93.67
2019-03-31T02:09:10.071Z,85.28
2019-03-31T02:10:16.073Z,91.42
2019-03-31T02:11:22.001Z,97.20
2019-03-31T02:12:37.690Z,95.85
2019-03-31T02:13:43.629Z,91.50
2019-03-31T02:14:57.526Z,94.00
2019-03-31T02:16:08.077Z,98.03
2019-03-31T02:17:17.594Z,97.02
2019-03-31T02:18:37.389Z,95.15
2019-03-31T02:19:49.819Z,88.50
2019-03-31T02:21:10.204Z,93.47
2019-03-31T02:22:19.323Z,101.07
2019-03-31T02:23:25.247Z,96.90
2019-03-31T02:24:32.733Z,93.97
2019-03-31T02:25:43.455Z,91.42
2019-03-31T02:26:56.631Z,93.72
2019-03-31T02:28:09.518Z,91.80
2019-03-31T02:29:19.375Z,90.25
2019-03-31T02:30:36.009Z,87.92
2019-03-31T02:32:02.372Z,89.62
2019-03-31T02:33:23.951Z,96.70
2019-03-31T02:34:39.888Z,87.70
2019-03-31T02:36:31.535Z,91.12
2019-03-31T02:43:56.850Z,88.60
2019-03-31T02:44:50.204Z,88.80
2019-03-31T02:46:04.163Z,96.70
2019-03-31T02:47:09.437Z,91.90
2019-03-31T02:48:22.855Z,91.25
2019-03-31T02:49:44.097Z,85.77
2019-03-31T02:50:52.931Z,90.00
2019-03-31T02:52:03.812Z,88.35
2019-03-31T02:53:49.409Z,84.58
2019-03-31T02:54:40.626Z,91.12
2019-03-31T02:56:07.814Z,92.35
2019-03-31T03:00:11.793Z,89.10
2019-03-31T03:02:06.339Z,94.03
2019-03-31T03:03:04.247Z,87.42
2019-03-31T03:05:40.196Z,89.22
2019-03-31T03:07:50.680Z,83.07
2019-03-31T03:08:22.390Z,87.35
2019-03-31T03:09:45.564Z,95.90
2019-03-31T03:11:14.494Z,93.15
2019-03-31T03:13:36.683Z,86.17
2019-03-31T03:14:59.055Z,88.65
2019-03-31T03:16:20.918Z,93.90
2019-03-31T03:17:31.895Z,90.42
2019-03-31T03:18:43.201Z,101.22
2019-03-31T03:19:57.807Z,93.62
2019-03-31T03:21:11.952Z,96.82
2019-03-31T03:22:38.456Z,97.10
2019-03-31T03:23:48.187Z,90.90
2019-03-31T03:27:26.219Z,91.90
2019-03-31T03:30:20.436Z,85.20
2019-03-31T03:31:31.982Z,94.67
2019-03-31T03:33:10.183Z,93.50
2019-03-31T03:33:58.844Z,90.28
2019-03-31T03:35:03.894Z,87.70
2019-03-31T03:36:15.234Z,87.62
2019-03-31T03:37:27.216Z,84.37
2019-03-31T03:38:46.468Z,84.60
2019-03-31T03:39:40.732Z,90.10
2019-03-31T03:41:04.083Z,88.87
2019-03-31T03:41:59.482Z,90.15
2019-03-31T03:43:11.374Z,93.90
2019-03-31T03:44:18.941Z,92.88
2019-03-31T03:45:30.648Z,88.05
2019-03-31T03:46:37.826Z,85.75
2019-03-31T03:47:45.086Z,85.40
2019-03-31T03:48:58.170Z,90.25
2019-03-31T03:52:37.576Z,91.60
2019-03-31T03:53:48.163Z,81.70
2019-03-31T03:54:50.288Z,78.15
2019-03-31T03:56:00.193Z,84.95
2019-03-31T03:57:15.742Z,80.28
2019-03-31T03:58:23.156Z,77.40
2019-03-31T03:59:35.390Z,83.05
2019-03-31T04:00:38.214Z,80.60
2019-03-31T04:02:53.815Z,83.70
2019-03-31T04:03:30.111Z,85.77
2019-03-31T04:04:05.072Z,85.03
2019-03-31T04:05:21.405Z,87.17
2019-03-31T04:06:50.765Z,87.88
2019-03-31T04:07:40.548Z,81.92
2019-03-31T04:08:50.498Z,81.90
2019-03-31T04:10:02.102Z,83.30
2019-03-31T04:11:14.492Z,78.57
2019-03-31T04:12:25.027Z,83.07
2019-03-31T04:13:29.306Z,74.07
2019-03-31T04:14:38.052Z,82.42
2019-03-31T04:15:47.369Z,76.65
2019-03-31T04:17:00.556Z,80.00
2019-03-31T04:18:05.917Z,78.42
2019-03-31T04:19:13.397Z,81.82
2019-03-31T04:20:20.716Z,80.70
2019-03-31T04:21:29.333Z,70.55
2019-03-31T04:22:40.470Z,79.77
2019-03-31T04:24:55.169Z,85.47
2019-03-31T04:26:06.586Z,89.55
2019-03-31T04:27:21.138Z,78.28
2019-03-31T04:28:30.684Z,88.20
2019-03-31T04:29:42.996Z,82.42
2019-03-31T04:30:53.616Z,88.85
2019-03-31T04:32:29.718Z,88.05
2019-03-31T04:33:13.396Z,80.55
2019-03-31T04:34:28.864Z,81.55
2019-03-31T04:36:00.525Z,83.37
2019-03-31T04:36:51.231Z,80.07
2019-03-31T04:39:30.062Z,85.30
2019-03-31T04:41:47.778Z,80.75
2019-03-31T04:42:50.135Z,87.70
2019-03-31T04:43:59.597Z,80.38
2019-03-31T04:45:10.407Z,85.50
2019-03-31T04:46:22.687Z,78.60
2019-03-31T04:47:38.935Z,78.70
2019-03-31T04:48:47.391Z,76.87
2019-03-31T04:50:09.924Z,81.70
2019-03-31T04:51:17.327Z,78.57
2019-03-31T04:52:31.261Z,72.08
2019-03-31T04:53:39.183Z,78.57
2019-03-31T04:55:10.435Z,68.60
2019-03-31T04:56:36.389Z,78.35
2019-03-31T04:57:36.781Z,78.67
2019-03-31T04:58:42.207Z,79.97
2019-03-31T04:59:48.481Z,74.87
2019-03-31T05:01:19.039Z,74.47
2019-03-31T05:02:11.398Z,80.83
2019-03-31T05:03:30.182Z,80.07
2019-03-31T05:05:01.627Z,77.20
2019-03-31T05:05:48.779Z,75.62
2019-03-31T05:08:21.200Z,72.97
2019-03-31T05:09:29.837Z,72.65
2019-03-31T05:10:46.736Z,77.20
2019-03-31T05:11:44.298Z,75.60
2019-03-31T05:12:52.267Z,71.25
2019-03-31T05:14:03.338Z,73.30
2019-03-31T05:15:12.001Z,72.22
2019-03-31T05:16:19.312Z,74.75
2019-03-31T05:17:27.419Z,76.17
2019-03-31T05:18:39.124Z,66.42
2019-03-31T05:19:50.701Z,69.20
2019-03-31T05:21:20.531Z,73.67
2019-03-31T05:22:30.941Z,70.17
2019-03-31T05:24:57.716Z,70.90
2019-03-31T05:26:11.365Z,77.32
2019-03-31T05:28:28.822Z,77.87
2019-03-31T05:29:38.670Z,76.12
2019-03-31T05:30:50.890Z,75.57
2019-03-31T05:32:22.708Z,71.85
2019-03-31T05:33:08.915Z,70.37
2019-03-31T05:40:22.661Z,76.30
2019-03-31T05:45:40.742Z,77.60
2019-03-31T05:51:06.287Z,69.35
2019-03-31T05:52:14.445Z,82.10
2019-03-31T05:53:39.495Z,75.62
2019-03-31T05:56:31.262Z,72.65
2019-03-31T06:00:25.620Z,68.57
2019-03-31T06:01:37.388Z,69.30
2019-03-31T06:11:46.160Z,78.67
2019-03-31T06:35:07.814Z,68.28
2019-03-31T06:38:12.153Z,63.35
2019-03-31T06:39:34.077Z,65.50
2019-03-31T06:42:36.100Z,64.10
2019-03-31T06:45:09.007Z,66.67
2019-03-31T06:46:18.510Z,65.47
2019-03-31T06:47:29.822Z,66.20
2019-03-31T06:49:27.470Z,65.67
2019-03-31T06:53:08.666Z,57.43
2019-03-31T06:54:27.613Z,55.73
2019-03-31T06:55:40.530Z,60.30
2019-03-31T06:58:31.638Z,51.90
2019-03-31T07:03:38.450Z,52.35
2019-03-31T07:13:46.628Z,56.15
2019-03-31T07:14:56.425Z,53.20
2019-03-31T07:16:10.959Z,52.20
2019-03-31T07:17:21.109Z,52.65
2019-03-31T07:18:36.566Z,52.03
2019-03-31T07:20:12.629Z,49.13
2019-03-31T07:20:55.150Z,48.92
2019-03-31T07:22:00.064Z,45.75
2019-03-31T07:23:07.838Z,49.48
2019-03-31T07:24:16.241Z,47.78
2019-03-31T07:27:02.543Z,52.65
2019-03-31T07:28:10.348Z,48.30
2019-03-31T07:29:33.307Z,48.35
2019-03-31T07:31:55.324Z,56.80
2019-03-31T07:32:07.976Z,52.23
2019-03-31T07:34:07.317Z,44.88
2019-03-31T07:35:18.645Z,42.23
2019-03-31T07:36:31.364Z,49.88
2019-03-31T07:37:47.148Z,49.85
2019-03-31T07:38:52.298Z,48.73
2019-03-31T07:40:52.811Z,47.62
2019-03-31T07:41:13.546Z,50.73
2019-03-31T07:42:25.518Z,49.73
2019-03-31T07:43:53.084Z,49.18
2019-03-31T07:45:03.239Z,49.23
2019-03-31T07:49:16.441Z,45.88
2019-03-31T07:50:16.297Z,41.10
2019-03-31T07:52:34.105Z,44.03
2019-03-31T07:52:47.649Z,42.15
2019-03-31T07:54:01.364Z,48.05
2019-03-31T07:55:21.993Z,43.85
2019-03-31T07:56:34.195Z,40.98
2019-03-31T07:57:41.807Z,44.05
2019-03-31T07:58:59.390Z,41.20
2019-03-31T08:00:15.790Z,43.25
2019-03-31T08:01:21.635Z,44.48
2019-03-31T08:02:39.252Z,43.10
2019-03-31T08:03:37.875Z,45.45
2019-03-31T08:05:01.709Z,41.50
2019-03-31T08:07:58.470Z,38.78
2019-03-31T08:09:10.304Z,35.92
2019-03-31T08:10:18.774Z,40.20
2019-03-31T08:11:42.337Z,41.05
2019-03-31T08:12:50.732Z,45.52
2019-03-31T08:15:29.411Z,47.38
2019-03-31T08:16:03.539Z,42.05
2019-03-31T08:16:41.197Z,43.52
2019-03-31T08:18:16.228Z,42.05
2019-03-31T08:19:03.992Z,45.50
2019-03-31T08:20:14.079Z,41.60
2019-03-31T08:21:19.916Z,40.67
2019-03-31T08:22:30.100Z,42.90
2019-03-31T08:23:42.970Z,48.87
2019-03-31T08:24:50.826Z,42.25
2019-03-31T08:25:58.693Z,40.85
2019-03-31T08:27:09.463Z,41.53
2019-03-31T08:28:13.749Z,45.67
2019-03-31T08:29:18.072Z,42.58
2019-03-31T08:30:23.410Z,42.20
2019-03-31T08:31:29.306Z,36.05
2019-03-31T08:32:42.023Z,42.20
2019-03-31T08:33:57.120Z,43.75
2019-03-31T08:34:59.612Z,40.35
2019-03-31T08:36:03.939Z,40.23
2019-03-31T08:37:09.767Z,40.65
2019-03-31T08:38:15.582Z,37.50
2019-03-31T08:39:19.730Z,35.90
2019-03-31T08:40:24.058Z,45.20
2019-03-31T08:41:29.584Z,38.98
2019-03-31T08:42:33.982Z,39.58
2019-03-31T08:43:50.199Z,40.33
2019-03-31T08:44:56.338Z,43.28
2019-03-31T08:46:06.324Z,45.98
2019-03-31T08:47:18.864Z,45.83
2019-03-31T08:48:22.574Z,42.55
2019-03-31T08:49:30.543Z,41.05
2019-03-31T08:50:35.089Z,45.05
2019-03-31T08:51:42.088Z,42.62
2019-03-31T08:52:52.638Z,45.08
2019-03-31T08:53:56.814Z,43.17
2019-03-31T08:55:07.399Z,45.12
2019-03-31T08:56:11.715Z,46.23
2019-03-31T08:57:46.658Z,41.10
2019-03-31T08:58:34.967Z,39.20
2019-03-31T08:59:39.237Z,40.35
2019-03-31T09:00:46.603Z,44.27
2019-03-31T09:01:52.435Z,42.78
2019-03-31T09:04:21.407Z,43.02
2019-03-31T09:05:33.359Z,43.45
2019-03-31T09:06:41.876Z,44.88
2019-03-31T09:07:45.816Z,44.25
2019-03-31T09:08:51.201Z,44.53
2019-03-31T09:09:55.462Z,42.40
2019-03-31T09:10:59.584Z,44.10
2019-03-31T09:12:06.863Z,37.95
2019-03-31T09:13:15.270Z,47.13
2019-03-31T09:14:22.579Z,41.40
2019-03-31T09:15:34.826Z,44.20
2019-03-31T09:16:40.714Z,46.23
2019-03-31T09:17:47.699Z,47.25
2019-03-31T09:18:53.841Z,46.98
2019-03-31T09:20:04.289Z,49.27
2019-03-31T09:21:15.560Z,43.83
2019-03-31T09:22:23.123Z,47.35
2019-03-31T09:23:24.285Z,47.62
2019-03-31T09:24:35.612Z,41.75
2019-03-31T09:25:35.246Z,46.40
2019-03-31T09:26:45.087Z,46.42
2019-03-31T09:27:51.392Z,43.23
2019-03-31T09:28:55.574Z,49.80
2019-03-31T09:30:04.930Z,47.93
2019-03-31T09:31:13.293Z,47.45
2019-03-31T09:32:18.547Z,45.88
2019-03-31T09:33:26.290Z,44.40
2019-03-31T09:34:32.240Z,46.53
2019-03-31T09:35:47.807Z,48.02
2019-03-31T09:36:56.623Z,46.30
2019-03-31T09:39:05.709Z,48.92
2019-03-31T09:40:13.980Z,45.15
2019-03-31T09:41:21.742Z,44.50
2019-03-31T09:42:27.105Z,48.05
2019-03-31T09:43:41.102Z,42.38
2019-03-31T09:44:44.381Z,48.28
2019-03-31T09:45:50.963Z,45.80
2019-03-31T09:46:55.251Z,48.83
2019-03-31T09:47:59.610Z,42.62
2019-03-31T09:49:05.580Z,43.90
2019-03-31T09:50:17.448Z,43.30
2019-03-31T09:51:23.882Z,44.55
2019-03-31T09:52:32.319Z,42.40
2019-03-31T09:53:39.008Z,47.67
2019-03-31T09:54:47.745Z,47.62
2019-03-31T09:55:53.686Z,43.38
2019-03-31T09:56:58.106Z,46.60
2019-03-31T09:58:04.479Z,43.52
2019-03-31T09:59:22.825Z,42.78
2019-03-31T10:00:45.325Z,42.25
2019-03-31T10:01:50.665Z,41.80
2019-03-31T10:03:01.427Z,41.13
2019-03-31T10:04:13.131Z,39.42
2019-03-31T10:05:25.544Z,38.67
2019-03-31T10:06:31.886Z,44.45
2019-03-31T10:07:41.196Z,39.50
2019-03-31T10:08:56.240Z,42.38
2019-03-31T10:09:57.261Z,42.95
2019-03-31T10:11:06.297Z,37.33
2019-03-31T10:12:16.118Z,41.02
2019-03-31T10:13:31.277Z,38.53
2019-03-31T10:14:37.851Z,38.80
2019-03-31T10:15:43.892Z,40.83
2019-03-31T10:16:51.034Z,38.83
2019-03-31T10:17:56.448Z,40.58
2019-03-31T10:19:02.361Z,39.33
2019-03-31T10:20:11.659Z,41.77
2019-03-31T10:21:29.801Z,41.98
2019-03-31T10:22:37.292Z,42.10
2019-03-31T10:23:43.232Z,43.58
2019-03-31T10:24:50.525Z,39.70
2019-03-31T10:25:59.265Z,42.33
2019-03-31T10:27:07.840Z,43.10
2019-03-31T10:28:13.885Z,41.63
2019-03-31T10:29:19.348Z,40.98
2019-03-31T10:30:45.170Z,42.38
2019-03-31T10:31:51.095Z,41.35
2019-03-31T10:32:55.887Z,37.85
2019-03-31T10:34:03.377Z,41.75
2019-03-31T10:35:15.512Z,43.02
2019-03-31T10:37:51.118Z,38.30
2019-03-31T10:38:57.298Z,40.33
2019-03-31T10:40:09.243Z,40.00
2019-03-31T10:41:22.086Z,42.67
2019-03-31T10:42:31.069Z,41.53
2019-03-31T10:43:38.566Z,44.15
2019-03-31T10:46:07.779Z,40.95
2019-03-31T10:47:25.817Z,38.53
2019-03-31T10:48:31.564Z,45.98
2019-03-31T10:49:41.179Z,40.52
2019-03-31T10:50:49.885Z,41.80
2019-03-31T10:52:02.005Z,37.95
2019-03-31T10:53:11.789Z,37.42
2019-03-31T10:54:28.289Z,38.67
2019-03-31T10:55:36.321Z,42.93
2019-03-31T10:56:44.596Z,43.75
2019-03-31T10:57:51.274Z,45.33
2019-03-31T10:59:04.578Z,40.63
2019-03-31T11:00:10.701Z,43.52
2019-03-31T11:01:38.062Z,43.05
2019-03-31T11:02:43.613Z,43.48
2019-03-31T11:03:49.811Z,40.15
2019-03-31T11:05:05.865Z,42.05
2019-03-31T11:06:17.521Z,41.80
2019-03-31T11:07:22.565Z,41.53
2019-03-31T11:08:30.077Z,41.42
2019-03-31T11:09:53.326Z,38.08
2019-03-31T11:11:05.495Z,36.50
2019-03-31T11:13:40.111Z,34.38
2019-03-31T11:14:53.553Z,34.92
2019-03-31T11:15:57.471Z,37.63
2019-03-31T11:17:12.361Z,41.28
2019-03-31T11:18:22.256Z,41.13
2019-03-31T11:19:29.886Z,38.00
2019-03-31T11:20:38.494Z,40.35
2019-03-31T11:22:04.745Z,42.25
2019-03-31T11:23:16.800Z,36.95
2019-03-31T11:24:29.544Z,40.03
2019-03-31T11:25:38.499Z,39.03
2019-03-31T11:26:44.573Z,38.10
2019-03-31T11:27:48.944Z,37.80
2019-03-31T11:29:25.135Z,38.83
2019-03-31T11:30:06.932Z,36.15
2019-03-31T11:31:17.987Z,35.60
2019-03-31T11:32:28.897Z,38.50
2019-03-31T11:33:35.639Z,41.25
2019-03-31T11:34:47.900Z,36.48
2019-03-31T11:35:54.414Z,35.90
2019-03-31T11:37:13.787Z,40.15
2019-03-31T11:38:21.929Z,33.25
2019-03-31T11:39:37.037Z,40.63
2019-03-31T11:42:08.266Z,36.05
2019-03-31T11:43:20.991Z,39.20
2019-03-31T11:44:21.606Z,37.80
2019-03-31T11:45:30.609Z,38.38
2019-03-31T11:46:34.884Z,36.60
2019-03-31T11:47:44.777Z,37.80
2019-03-31T11:48:57.283Z,40.52
2019-03-31T11:49:58.398Z,42.53
2019-03-31T11:51:10.287Z,38.65
2019-03-31T11:52:21.680Z,38.88
2019-03-31T11:53:28.943Z,38.23
2019-03-31T11:54:28.517Z,36.50
2019-03-31T11:55:37.168Z,39.05
2019-03-31T11:56:44.819Z,37.67
2019-03-31T11:57:58.134Z,39.78
2019-03-31T11:59:06.423Z,44.58
2019-03-31T12:00:29.680Z,42.83
2019-03-31T12:01:33.473Z,46.90
2019-03-31T12:02:37.893Z,43.87
2019-03-31T12:03:56.481Z,39.08
2019-03-31T12:04:57.762Z,49.20
2019-03-31T12:06:05.396Z,40.25
2019-03-31T12:07:11.256Z,38.53
2019-03-31T12:08:17.006Z,41.15
2019-03-31T12:10:28.941Z,40.65
2019-03-31T12:10:33.379Z,35.65
2019-03-31T12:12:14.947Z,41.53
2019-03-31T12:12:59.190Z,37.00
2019-03-31T12:14:20.842Z,38.70
2019-03-31T12:17:07.580Z,37.58
2019-03-31T12:17:59.095Z,38.33
2019-03-31T12:19:15.805Z,38.80
2019-03-31T12:20:21.628Z,40.03
2019-03-31T12:21:29.216Z,40.20
2019-03-31T12:22:38.060Z,38.63
2019-03-31T12:23:49.585Z,40.12
2019-03-31T12:24:55.360Z,41.53
2019-03-31T12:26:00.077Z,41.77
2019-03-31T12:27:10.187Z,42.43
2019-03-31T12:28:41.684Z,36.50
2019-03-31T12:29:41.320Z,42.23
2019-03-31T12:30:49.682Z,41.50
2019-03-31T12:31:54.938Z,41.15
2019-03-31T12:33:10.680Z,43.20
2019-03-31T12:34:13.442Z,38.10
2019-03-31T12:35:20.933Z,37.00
2019-03-31T12:36:25.242Z,40.38
2019-03-31T12:37:42.179Z,42.98
2019-03-31T12:38:42.689Z,40.20
2019-03-31T12:39:49.731Z,42.27
2019-03-31T12:40:54.649Z,44.63
2019-03-31T12:42:01.990Z,43.90
2019-03-31T12:43:19.715Z,39.58
2019-03-31T12:44:25.473Z,47.05
2019-03-31T12:45:35.485Z,46.55
2019-03-31T12:46:44.253Z,44.70
2019-03-31T12:47:50.916Z,40.40
2019-03-31T12:48:57.892Z,44.03
2019-03-31T12:50:02.133Z,41.88
2019-03-31T12:51:06.286Z,43.42
2019-03-31T12:52:14.693Z,40.45
2019-03-31T12:53:20.794Z,40.35
2019-03-31T12:54:27.247Z,47.90
2019-03-31T12:55:33.063Z,43.52
2019-03-31T12:56:39.985Z,39.35
2019-03-31T12:57:44.505Z,43.83
2019-03-31T12:58:54.157Z,38.58
2019-03-31T13:00:06.503Z,43.95
2019-03-31T13:01:05.814Z,42.17
2019-03-31T13:02:10.097Z,42.55
2019-03-31T13:03:19.101Z,45.43
2019-03-31T13:04:23.583Z,41.65
2019-03-31T13:05:32.338Z,42.73
2019-03-31T13:06:39.436Z,42.23
2019-03-31T13:07:55.686Z,43.00
2019-03-31T13:08:49.463Z,43.35
2019-03-31T13:09:54.459Z,42.20
2019-03-31T13:10:58.700Z,45.50
2019-03-31T13:12:06.564Z,42.25
2019-03-31T13:13:16.834Z,41.90
2019-03-31T13:14:19.833Z,41.30
2019-03-31T13:15:24.183Z,41.18
2019-03-31T13:16:30.008Z,43.23
2019-03-31T13:17:34.312Z,42.05
2019-03-31T13:18:38.623Z,43.87
2019-03-31T13:19:42.811Z,40.25
2019-03-31T13:20:48.664Z,42.58
2019-03-31T13:21:52.888Z,42.25
2019-03-31T13:22:57.036Z,43.35
2019-03-31T13:24:01.243Z,40.52
2019-03-31T13:25:07.212Z,41.98
2019-03-31T13:26:12.906Z,38.48
2019-03-31T13:27:19.846Z,38.60
2019-03-31T13:28:28.357Z,40.88
2019-03-31T13:29:32.511Z,39.18
2019-03-31T13:30:43.122Z,43.48
2019-03-31T13:31:42.709Z,41.53
2019-03-31T13:32:46.991Z,45.50
2019-03-31T13:33:51.213Z,37.88
2019-03-31T13:34:55.306Z,42.70
2019-03-31T13:36:05.644Z,45.12
2019-03-31T13:37:12.754Z,40.95
2019-03-31T13:38:16.999Z,40.70
2019-03-31T13:39:23.192Z,40.78
2019-03-31T13:40:27.508Z,40.60
2019-03-31T13:41:33.383Z,46.13
2019-03-31T13:42:37.645Z,38.88
2019-03-31T13:43:41.917Z,42.05
2019-03-31T13:44:47.720Z,38.33
2019-03-31T13:45:54.462Z,39.53
2019-03-31T13:47:23.566Z,39.08
2019-03-31T13:48:06.267Z,39.83
2019-03-31T13:49:14.686Z,38.78
2019-03-31T13:50:30.806Z,44.23
2019-03-31T13:51:28.307Z,41.40
2019-03-31T13:52:32.847Z,39.75
2019-03-31T13:53:38.710Z,41.90
2019-03-31T13:54:42.958Z,42.05
2019-03-31T13:55:48.985Z,41.08
2019-03-31T13:56:53.892Z,38.45
2019-03-31T13:57:59.380Z,39.73
2019-03-31T13:59:09.099Z,43.35
2019-03-31T14:00:12.905Z,40.75
2019-03-31T14:01:17.106Z,38.90
2019-03-31T14:02:22.262Z,41.02
2019-03-31T14:03:29.723Z,42.03
2019-03-31T14:04:35.518Z,34.00
2019-03-31T14:05:39.025Z,39.42
2019-03-31T14:06:45.990Z,38.58
2019-03-31T14:07:50.321Z,40.90
2019-03-31T14:09:03.005Z,36.70
2019-03-31T14:10:07.163Z,39.45
2019-03-31T14:11:11.367Z,37.33
2019-03-31T14:12:16.886Z,38.20
2019-03-31T14:13:20.996Z,39.13
2019-03-31T14:14:28.286Z,34.15
2019-03-31T14:15:35.278Z,29.82
2019-03-31T14:16:40.145Z,35.85
2019-03-31T14:17:44.311Z,31.37
2019-03-31T14:18:49.474Z,28.75
2019-03-31T14:19:53.656Z,31.73
2019-03-31T14:20:57.872Z,30.62
2019-03-31T14:22:01.968Z,27.73
2019-03-31T14:23:06.992Z,25.68
2019-03-31T14:24:11.303Z,27.37
2019-03-31T14:25:17.998Z,25.25
2019-03-31T14:26:21.444Z,27.60
2019-03-31T14:27:25.659Z,28.60
2019-03-31T14:28:29.906Z,27.15
2019-03-31T14:29:34.581Z,25.20
2019-03-31T14:30:51.966Z,28.20
2019-03-31T14:31:57.455Z,28.60
2019-03-31T14:33:01.835Z,26.20
2019-03-31T14:34:06.656Z,23.27
2019-03-31T14:35:11.017Z,21.37
2019-03-31T14:36:16.734Z,19.80
2019-03-31T14:38:51.441Z,34.53
2019-03-31T14:39:52.181Z,24.80
2019-03-31T14:41:47.167Z,20.20
2019-03-31T14:45:37.758Z,22.40
2019-03-31T14:46:49.322Z,25.50
2019-03-31T14:47:59.069Z,21.30
2019-03-31T14:49:01.844Z,17.30
2019-03-31T14:51:48.450Z,18.45
2019-03-31T14:52:52.610Z,17.32
2019-03-31T14:53:56.840Z,16.20
2019-03-31T14:55:12.904Z,17.60
2019-03-31T14:56:14.770Z,17.00
2019-03-31T14:57:40.603Z,19.75
2019-03-31T14:59:44.400Z,16.40
2019-03-31T15:00:50.256Z,16.67
2019-03-31T15:01:56.199Z,17.37
2019-03-31T15:04:23.912Z,19.00
2019-03-31T15:04:55.621Z,15.72
2019-03-31T15:05:28.227Z,18.60
2019-03-31T15:06:32.570Z,21.15
2019-03-31T15:07:39.867Z,15.58
2019-03-31T15:08:54.180Z,16.42
2019-03-31T15:09:51.358Z,17.73
2019-03-31T15:10:59.111Z,16.07
2019-03-31T15:12:03.353Z,18.10
2019-03-31T15:13:10.705Z,19.32
2019-03-31T15:14:15.029Z,17.87
2019-03-31T15:15:19.240Z,17.77
2019-03-31T15:16:25.044Z,16.57
2019-03-31T15:17:31.477Z,18.40
2019-03-31T15:18:35.813Z,15.83
2019-03-31T15:19:43.163Z,16.27
2019-03-31T15:20:51.819Z,16.02
2019-03-31T15:22:01.454Z,16.87
2019-03-31T15:23:04.103Z,15.83
2019-03-31T15:24:11.915Z,15.78
2019-03-31T15:25:19.764Z,14.13
2019-03-31T15:26:23.689Z,15.48
2019-03-31T15:27:30.104Z,14.87
2019-03-31T15:28:34.349Z,16.95
2019-03-31T15:29:39.741Z,16.30
2019-03-31T15:30:43.990Z,13.65
2019-03-31T15:31:51.897Z,14.23
2019-03-31T15:33:17.621Z,13.38
2019-03-31T15:34:20.058Z,13.53
2019-03-31T15:35:24.248Z,13.68
2019-03-31T15:36:35.464Z,15.30
2019-03-31T15:37:46.458Z,15.25
2019-03-31T15:38:49.387Z,13.43
2019-03-31T15:40:02.818Z,16.62
2019-03-31T15:41:20.624Z,16.12
2019-03-31T15:42:18.082Z,15.53
2019-03-31T15:43:25.354Z,13.18
2019-03-31T15:44:31.278Z,11.78
2019-03-31T15:45:41.666Z,13.03
2019-03-31T15:48:01.734Z,12.18
2019-03-31T15:49:13.416Z,14.45
2019-03-31T15:50:19.372Z,10.72
2019-03-31T15:51:29.825Z,12.07
2019-03-31T15:52:40.134Z,11.85
2019-03-31T15:53:48.907Z,10.58
2019-03-31T15:54:54.967Z,13.58
2019-03-31T15:56:00.998Z,10.55
2019-03-31T15:57:05.358Z,10.23
2019-03-31T15:58:11.260Z,15.40
2019-03-31T15:59:19.128Z,13.78
2019-03-31T16:00:32.677Z,11.80
2019-03-31T16:01:33.776Z,10.95
2019-03-31T16:02:41.946Z,10.98
2019-03-31T16:03:46.252Z,12.43
2019-03-31T16:04:50.598Z,9.58
2019-03-31T16:05:57.717Z,9.90
2019-03-31T16:07:04.979Z,9.95
2019-03-31T16:08:11.369Z,10.95
2019-03-31T16:09:23.523Z,10.43
2019-03-31T16:10:26.494Z,9.98
2019-03-31T16:11:33.615Z,12.80
2019-03-31T16:12:38.365Z,7.70
2019-03-31T16:13:44.176Z,8.10
2019-03-31T16:14:52.925Z,8.63
2019-03-31T16:15:55.565Z,7.85
2019-03-31T16:17:02.517Z,7.85
2019-03-31T16:18:08.419Z,8.33
2019-03-31T16:19:15.957Z,7.47
2019-03-31T16:20:22.945Z,8.05
2019-03-31T16:21:38.292Z,7.87
2019-03-31T16:22:38.030Z,7.83
2019-03-31T16:24:02.701Z,7.83
2019-03-31T16:25:08.837Z,7.17
2019-03-31T16:26:16.134Z,8.43
2019-03-31T16:27:24.010Z,7.90
2019-03-31T16:28:33.109Z,8.63
2019-03-31T16:29:46.328Z,7.12
2019-03-31T16:30:55.358Z,6.87
2019-03-31T16:32:03.790Z,9.53
2019-03-31T16:33:12.305Z,8.43
2019-03-31T16:34:18.672Z,6.92
2019-03-31T16:35:23.412Z,8.80
2019-03-31T16:36:30.309Z,7.67
2019-03-31T16:37:35.063Z,8.55
2019-03-31T16:38:39.358Z,10.95
2019-03-31T16:39:44.158Z,7.20
2019-03-31T16:40:51.218Z,8.48
2019-03-31T16:41:58.424Z,7.47
2019-03-31T16:43:02.801Z,9.33
2019-03-31T16:44:07.290Z,5.95
2019-03-31T16:45:14.228Z,7.65
2019-03-31T16:46:20.295Z,9.40
2019-03-31T16:47:28.239Z,7.22
2019-03-31T16:48:35.366Z,8.70
2019-03-31T16:49:42.676Z,7.12
2019-03-31T16:50:49.951Z,6.72
2019-03-31T16:51:54.232Z,6.90
2019-03-31T16:52:58.621Z,8.45
2019-03-31T16:54:08.892Z,7.40
2019-03-31T16:55:14.909Z,7.72
2019-03-31T16:56:19.296Z,9.85
2019-03-31T16:57:25.188Z,9.05
2019-03-31T16:58:32.084Z,9.38
2019-03-31T16:59:36.414Z,8.35
2019-03-31T17:00:43.938Z,9.30
2019-03-31T17:01:50.955Z,7.83
2019-03-31T17:02:56.522Z,7.67
2019-03-31T17:04:06.871Z,9.08
2019-03-31T17:05:21.696Z,11.85
2019-03-31T17:06:22.116Z,7.55
2019-03-31T17:07:24.239Z,7.33
2019-03-31T17:08:32.072Z,7.60
2019-03-31T17:09:50.900Z,10.25
2019-03-31T17:10:46.584Z,10.70
2019-03-31T17:12:01.332Z,10.10
2019-03-31T17:13:43.833Z,9.10
2019-03-31T17:14:52.783Z,12.20
2019-03-31T17:15:56.924Z,9.00
2019-03-31T17:17:03.981Z,9.38
2019-03-31T17:18:08.123Z,10.13
2019-03-31T17:19:12.946Z,11.25
2019-03-31T17:20:17.298Z,12.82
2019-03-31T17:21:22.954Z,8.63
2019-03-31T17:22:28.012Z,8.70
2019-03-31T17:23:32.051Z,8.88
2019-03-31T17:24:38.001Z,7.83
2019-03-31T17:25:43.695Z,8.63
2019-03-31T17:26:47.847Z,9.85
2019-03-31T17:27:54.620Z,10.00
2019-03-31T17:28:58.893Z,10.10
2019-03-31T17:30:05.937Z,9.85
2019-03-31T17:31:10.311Z,8.45
2019-03-31T17:32:16.035Z,9.13
2019-03-31T17:33:22.539Z,9.80
2019-03-31T17:34:31.384Z,7.08
2019-03-31T17:35:35.757Z,9.88
2019-03-31T17:36:57.210Z,12.78
2019-03-31T17:37:53.909Z,10.38
2019-03-31T17:39:02.485Z,10.80
2019-03-31T17:40:12.263Z,9.73
2019-03-31T17:41:27.378Z,8.80
2019-03-31T17:42:36.934Z,8.90